createdAt,value
2022-09-12T00:09:52.845Z,3.10
2022-09-12T00:19:59.594Z,2.93
2022-09-12T00:30:06.603Z,2.83
2022-09-12T00:40:11.569Z,3.17
2022-09-12T00:50:14.829Z,3.00
2022-09-12T01:00:26.321Z,3.07
2022-09-12T01:10:35.260Z,3.70
2022-09-12T01:21:23.293Z,2.87
2022-09-12T01:31:36.461Z,3.20
2022-09-12T01:42:20.549Z,2.90
2022-09-12T01:52:38.113Z,2.93
2022-09-12T02:02:43.962Z,2.70
2022-09-12T02:13:19.815Z,3.47
2022-09-12T02:23:29.123Z,3.07
2022-09-12T02:33:45.579Z,3.17
2022-09-12T02:43:55.446Z,2.63
2022-09-12T02:54:16.565Z,3.37
2022-09-12T03:04:31.319Z,4.47
2022-09-12T03:15:01.976Z,3.17
2022-09-12T03:25:29.889Z,2.80
2022-09-12T03:35:40.101Z,3.17
2022-09-12T03:45:48.336Z,3.40
2022-09-12T03:55:53.403Z,3.67
2022-09-12T04:05:59.348Z,4.10
2022-09-12T04:16:05.271Z,4.50
2022-09-12T04:26:12.068Z,4.37
2022-09-12T04:36:20.771Z,4.93
2022-09-12T04:46:32.619Z,4.97
2022-09-12T04:56:42.185Z,4.80
2022-09-12T05:06:48.049Z,6.10
2022-09-12T05:16:51.136Z,4.60
2022-09-12T05:26:53.704Z,5.50
2022-09-12T05:36:58.483Z,5.30
2022-09-12T05:47:03.853Z,5.70
2022-09-12T05:57:08.205Z,5.90
2022-09-12T06:07:10.637Z,5.70
2022-09-12T06:17:17.023Z,6.07
2022-09-12T06:27:22.220Z,5.33
2022-09-12T06:37:33.495Z,5.97
2022-09-12T06:47:38.311Z,5.80
2022-09-12T06:57:46.218Z,5.90
2022-09-12T07:07:56.194Z,5.97
2022-09-12T07:18:03.443Z,6.50
2022-09-12T07:28:14.693Z,7.37
2022-09-12T07:38:28.366Z,6.87
2022-09-12T07:48:33.044Z,7.93
2022-09-12T07:58:42.114Z,5.67
2022-09-12T08:08:46.746Z,7.83
2022-09-12T08:18:52.049Z,5.23
2022-09-12T08:28:56.311Z,6.13
2022-09-12T08:39:05.409Z,5.07
2022-09-12T08:49:23.083Z,5.03
2022-09-12T08:59:39.186Z,5.67
2022-09-12T09:10:07.994Z,5.37
2022-09-12T09:20:22.985Z,5.83
2022-09-12T09:30:30.473Z,4.53
2022-09-12T09:40:41.776Z,4.00
2022-09-12T09:50:49.340Z,4.23
2022-09-12T10:01:01.862Z,3.77
2022-09-12T10:11:08.257Z,3.60
2022-09-12T10:21:29.503Z,3.60
2022-09-12T10:31:44.138Z,3.40
2022-09-12T10:41:46.797Z,4.10
2022-09-12T10:51:50.501Z,4.07
2022-09-12T11:02:01.622Z,3.90
2022-09-12T11:12:12.336Z,4.15
2022-09-12T11:22:55.291Z,4.50
2022-09-12T11:33:51.319Z,3.80
2022-09-12T11:44:43.310Z,4.03
2022-09-12T11:54:58.070Z,3.50
2022-09-12T12:05:15.172Z,3.10
2022-09-12T12:15:20.017Z,3.38
2022-09-12T12:25:53.073Z,3.97
2022-09-12T12:36:19.641Z,3.40
2022-09-12T12:46:28.829Z,3.47
2022-09-12T12:56:44.761Z,3.55
2022-09-12T13:07:05.829Z,3.40
2022-09-12T13:17:20.584Z,2.83
2022-09-12T13:27:38.596Z,2.92
2022-09-12T13:38:09.138Z,2.80
2022-09-12T13:48:28.688Z,3.05
2022-09-12T13:58:35.303Z,3.00
2022-09-12T14:08:41.931Z,3.22
2022-09-12T14:18:47.464Z,3.00
2022-09-12T14:28:50.371Z,2.80
2022-09-12T14:39:07.902Z,3.20
2022-09-12T14:49:19.819Z,3.13
2022-09-12T15:00:02.494Z,3.83
2022-09-12T15:10:18.624Z,3.63
2022-09-12T15:20:24.283Z,3.45
2022-09-12T15:30:26.505Z,3.33
2022-09-12T15:40:29.977Z,3.60
2022-09-12T15:50:33.017Z,4.43
2022-09-12T16:00:42.813Z,4.53
2022-09-12T16:10:46.413Z,4.90
2022-09-12T16:20:54.349Z,5.22
2022-09-12T16:31:03.147Z,4.85
2022-09-12T16:41:07.488Z,5.30
2022-09-12T16:51:09.972Z,5.13
2022-09-12T17:01:24.326Z,5.23
2022-09-12T17:11:41.589Z,5.75
2022-09-12T17:21:45.203Z,5.63
2022-09-12T17:31:52.727Z,6.00
2022-09-12T17:41:58.098Z,5.43
2022-09-12T17:52:06.240Z,5.30
2022-09-12T18:02:13.678Z,4.90
2022-09-12T18:12:19.126Z,4.60
2022-09-12T18:22:26.435Z,5.03
2022-09-12T18:32:32.925Z,4.47
2022-09-12T18:42:40.454Z,4.22
2022-09-12T18:52:44.792Z,4.93
2022-09-12T19:02:47.340Z,6.07
2022-09-12T19:12:51.834Z,5.07
2022-09-12T19:22:54.078Z,4.90
2022-09-12T19:33:01.093Z,4.40
2022-09-12T19:43:03.199Z,4.82
2022-09-12T19:53:07.951Z,5.22
2022-09-12T20:03:13.407Z,5.60
2022-09-12T20:13:16.618Z,6.07
2022-09-12T20:23:23.645Z,6.43
2022-09-12T20:33:30.844Z,6.93
2022-09-12T20:43:40.364Z,6.43
2022-09-12T20:53:44.823Z,6.20
2022-09-12T21:03:57.619Z,8.03
2022-09-12T21:13:59.735Z,6.47
2022-09-12T21:24:04.175Z,7.27
2022-09-12T21:34:11.332Z,7.03
2022-09-12T21:44:19.397Z,5.63
2022-09-12T21:54:24.138Z,5.67
2022-09-12T22:04:26.613Z,4.10
2022-09-12T22:14:31.914Z,4.20
2022-09-12T22:24:36.651Z,4.27
2022-09-12T22:34:43.480Z,4.20
2022-09-12T22:44:50.187Z,4.03
2022-09-12T22:54:54.994Z,4.27
2022-09-12T23:05:01.150Z,3.40
2022-09-12T23:15:03.698Z,3.77
2022-09-12T23:25:10.987Z,3.60
2022-09-12T23:35:22.886Z,3.30
2022-09-12T23:45:25.301Z,3.93
2022-09-12T23:55:32.793Z,4.50
